sensor_id;sensor_type;location;lat;lon;timestamp;pressure;altitude;pressure_sealevel;temperature
80537;BMP280;69867;47.074;15.404;2023-06-01T00:01:41;97613.06;;;17.46
80537;BMP280;69867;47.074;15.404;2023-06-01T00:04:06;97618.31;;;17.46
80537;BMP280;69867;47.074;15.404;2023-06-01T00:06:31;97613.91;;;17.46
80537;BMP280;69867;47.074;15.404;2023-06-01T00:08:57;97627.06;;;17.46
80537;BMP280;69867;47.074;15.404;2023-06-01T00:11:22;97621.03;;;17.44
80537;BMP280;69867;47.074;15.404;2023-06-01T00:13:48;97617.63;;;17.42
80537;BMP280;69867;47.074;15.404;2023-06-01T00:16:14;97620.78;;;17.32
80537;BMP280;69867;47.074;15.404;2023-06-01T00:18:40;97623.34;;;17.33
80537;BMP280;69867;47.074;15.404;2023-06-01T00:21:06;97625.19;;;17.31
80537;BMP280;69867;47.074;15.404;2023-06-01T00:23:32;97628.91;;;17.27
80537;BMP280;69867;47.074;15.404;2023-06-01T00:25:58;97623.78;;;17.24
80537;BMP280;69867;47.074;15.404;2023-06-01T00:28:23;97630.91;;;17.22
80537;BMP280;69867;47.074;15.404;2023-06-01T00:30:48;97619.63;;;17.20
80537;BMP280;69867;47.074;15.404;2023-06-01T00:33:14;97614.38;;;17.20
80537;BMP280;69867;47.074;15.404;2023-06-01T00:35:39;97621.25;;;17.22
80537;BMP280;69867;47.074;15.404;2023-06-01T00:38:04;97615.91;;;17.24
80537;BMP280;69867;47.074;15.404;2023-06-01T00:40:30;97610.44;;;17.28
80537;BMP280;69867;47.074;15.404;2023-06-01T00:42:55;97614.69;;;17.31
80537;BMP280;69867;47.074;15.404;2023-06-01T00:45:20;97607.44;;;17.36
80537;BMP280;69867;47.074;15.404;2023-06-01T00:47:46;97607.19;;;17.41
80537;BMP280;69867;47.074;15.404;2023-06-01T00:50:12;97610.53;;;17.44
80537;BMP280;69867;47.074;15.404;2023-06-01T00:52:38;97604.34;;;17.45
80537;BMP280;69867;47.074;15.404;2023-06-01T00:55:04;97610.44;;;17.46
80537;BMP280;69867;47.074;15.404;2023-06-01T00:57:30;97595.44;;;17.48
80537;BMP280;69867;47.074;15.404;2023-06-01T00:59:57;97597.16;;;17.49
80537;BMP280;69867;47.074;15.404;2023-06-01T01:02:23;97607.66;;;17.49
80537;BMP280;69867;47.074;15.404;2023-06-01T01:04:48;97603.34;;;17.48
80537;BMP280;69867;47.074;15.404;2023-06-01T01:07:21;97607.75;;;17.47
80537;BMP280;69867;47.074;15.404;2023-06-01T01:09:58;97612.22;;;17.45
80537;BMP280;69867;47.074;15.404;2023-06-01T01:12:37;97603.72;;;17.40
80537;BMP280;69867;47.074;15.404;2023-06-01T01:15:29;97603.88;;;17.37
80537;BMP280;69867;47.074;15.404;2023-06-01T01:18:03;97607.44;;;17.36
80537;BMP280;69867;47.074;15.404;2023-06-01T01:20:36;97615.31;;;17.36
80537;BMP280;69867;47.074;15.404;2023-06-01T01:23:25;97615.47;;;17.33
80537;BMP280;69867;47.074;15.404;2023-06-01T01:28:46;97604.97;;;17.33
80537;BMP280;69867;47.074;15.404;2023-06-01T01:31:18;97604.19;;;17.31
80537;BMP280;69867;47.074;15.404;2023-06-01T01:33:45;97603.88;;;17.20
80537;BMP280;69867;47.074;15.404;2023-06-01T01:36:11;97604.94;;;17.16
80537;BMP280;69867;47.074;15.404;2023-06-01T01:38:37;97605.78;;;17.16
80537;BMP280;69867;47.074;15.404;2023-06-01T01:41:03;97596.28;;;17.14
80537;BMP280;69867;47.074;15.404;2023-06-01T01:43:30;97593.66;;;17.14
80537;BMP280;69867;47.074;15.404;2023-06-01T01:49:12;97597.13;;;17.14
80537;BMP280;69867;47.074;15.404;2023-06-01T01:51:53;97603.53;;;17.09
80537;BMP280;69867;47.074;15.404;2023-06-01T01:54:21;97594.75;;;17.10
80537;BMP280;69867;47.074;15.404;2023-06-01T01:56:49;97592.97;;;17.10
80537;BMP280;69867;47.074;15.404;2023-06-01T01:59:15;97589.63;;;17.07
80537;BMP280;69867;47.074;15.404;2023-06-01T02:01:40;97585.38;;;17.04
80537;BMP280;69867;47.074;15.404;2023-06-01T02:04:06;97580.66;;;16.93
80537;BMP280;69867;47.074;15.404;2023-06-01T02:06:31;97586.97;;;16.89
80537;BMP280;69867;47.074;15.404;2023-06-01T02:08:56;97580.16;;;16.85
80537;BMP280;69867;47.074;15.404;2023-06-01T02:11:22;97575.97;;;16.81
80537;BMP280;69867;47.074;15.404;2023-06-01T02:13:47;97574.56;;;16.74
80537;BMP280;69867;47.074;15.404;2023-06-01T02:16:13;97572.25;;;16.68
80537;BMP280;69867;47.074;15.404;2023-06-01T02:18:38;97573.56;;;16.58
80537;BMP280;69867;47.074;15.404;2023-06-01T02:21:04;97562.44;;;16.53
80537;BMP280;69867;47.074;15.404;2023-06-01T02:23:29;97562.59;;;16.50
80537;BMP280;69867;47.074;15.404;2023-06-01T02:25:54;97556.78;;;16.43
80537;BMP280;69867;47.074;15.404;2023-06-01T02:28:20;97561.47;;;16.37
80537;BMP280;69867;47.074;15.404;2023-06-01T02:30:45;97565.16;;;16.32
80537;BMP280;69867;47.074;15.404;2023-06-01T02:33:10;97560.97;;;16.28
80537;BMP280;69867;47.074;15.404;2023-06-01T02:35:36;97556.88;;;16.23
80537;BMP280;69867;47.074;15.404;2023-06-01T02:38:01;97561.63;;;16.15
80537;BMP280;69867;47.074;15.404;2023-06-01T02:40:26;97559.22;;;16.10
80537;BMP280;69867;47.074;15.404;2023-06-01T02:42:52;97561.06;;;16.08
80537;BMP280;69867;47.074;15.404;2023-06-01T02:45:17;97559.34;;;16.07
80537;BMP280;69867;47.074;15.404;2023-06-01T02:47:42;97561.19;;;16.05
80537;BMP280;69867;47.074;15.404;2023-06-01T02:50:08;97556.81;;;16.06
80537;BMP280;69867;47.074;15.404;2023-06-01T02:52:33;97556.94;;;16.03
80537;BMP280;69867;47.074;15.404;2023-06-01T02:54:59;97557.94;;;16.00
80537;BMP280;69867;47.074;15.404;2023-06-01T02:57:24;97555.66;;;15.92
80537;BMP280;69867;47.074;15.404;2023-06-01T02:59:49;97553.53;;;15.82
80537;BMP280;69867;47.074;15.404;2023-06-01T03:02:15;97555.78;;;15.71
80537;BMP280;69867;47.074;15.404;2023-06-01T03:04:40;97547.50;;;15.59
80537;BMP280;69867;47.074;15.404;2023-06-01T03:07:05;97550.34;;;15.53
80537;BMP280;69867;47.074;15.404;2023-06-01T03:09:31;97555.94;;;15.46
80537;BMP280;69867;47.074;15.404;2023-06-01T03:11:56;97553.50;;;15.41
80537;BMP280;69867;47.074;15.404;2023-06-01T03:14:21;97557.19;;;15.37
80537;BMP280;69867;47.074;15.404;2023-06-01T03:16:47;97549.50;;;15.32
80537;BMP280;69867;47.074;15.404;2023-06-01T03:19:12;97552.06;;;15.34
80537;BMP280;69867;47.074;15.404;2023-06-01T03:21:37;97557.31;;;15.34
80537;BMP280;69867;47.074;15.404;2023-06-01T03:24:03;97558.41;;;15.28
80537;BMP280;69867;47.074;15.404;2023-06-01T03:26:28;97555.22;;;15.22
80537;BMP280;69867;47.074;15.404;2023-06-01T03:28:53;97553.50;;;15.21
80537;BMP280;69867;47.074;15.404;2023-06-01T03:31:19;97555.66;;;15.11
80537;BMP280;69867;47.074;15.404;2023-06-01T03:33:44;97552.97;;;15.13
80537;BMP280;69867;47.074;15.404;2023-06-01T03:36:09;97553.56;;;15.19
80537;BMP280;69867;47.074;15.404;2023-06-01T03:38:35;97560.38;;;15.23
80537;BMP280;69867;47.074;15.404;2023-06-01T03:41:00;97552.31;;;15.28
80537;BMP280;69867;47.074;15.404;2023-06-01T03:43:26;97555.59;;;15.33
80537;BMP280;69867;47.074;15.404;2023-06-01T03:45:51;97556.78;;;15.26
80537;BMP280;69867;47.074;15.404;2023-06-01T03:48:16;97565.03;;;15.37
80537;BMP280;69867;47.074;15.404;2023-06-01T03:50:42;97562.16;;;15.43
80537;BMP280;69867;47.074;15.404;2023-06-01T03:53:07;97567.91;;;15.51
80537;BMP280;69867;47.074;15.404;2023-06-01T03:55:32;97562.44;;;15.57
80537;BMP280;69867;47.074;15.404;2023-06-01T03:57:58;97564.81;;;15.63
80537;BMP280;69867;47.074;15.404;2023-06-01T04:00:23;97566.97;;;15.74
80537;BMP280;69867;47.074;15.404;2023-06-01T04:02:52;97562.56;;;15.75
80537;BMP280;69867;47.074;15.404;2023-06-01T04:05:19;97565.13;;;15.76
80537;BMP280;69867;47.074;15.404;2023-06-01T04:07:45;97567.00;;;15.93
80537;BMP280;69867;47.074;15.404;2023-06-01T04:10:11;97569.00;;;16.07
80537;BMP280;69867;47.074;15.404;2023-06-01T04:12:37;97555.19;;;16.22
80537;BMP280;69867;47.074;15.404;2023-06-01T04:15:02;97555.09;;;16.23
80537;BMP280;69867;47.074;15.404;2023-06-01T04:17:27;97557.94;;;16.38
80537;BMP280;69867;47.074;15.404;2023-06-01T04:19:53;97560.06;;;16.29
80537;BMP280;69867;47.074;15.404;2023-06-01T04:22:18;97552.81;;;16.53
80537;BMP280;69867;47.074;15.404;2023-06-01T04:24:43;97553.44;;;16.77
80537;BMP280;69867;47.074;15.404;2023-06-01T04:27:09;97549.63;;;17.02
80537;BMP280;69867;47.074;15.404;2023-06-01T04:29:34;97548.25;;;17.29
80537;BMP280;69867;47.074;15.404;2023-06-01T04:31:59;97542.50;;;17.55
80537;BMP280;69867;47.074;15.404;2023-06-01T04:34:25;97535.22;;;17.78
80537;BMP280;69867;47.074;15.404;2023-06-01T04:36:50;97537.81;;;17.95
80537;BMP280;69867;47.074;15.404;2023-06-01T04:39:16;97535.13;;;18.91
80537;BMP280;69867;47.074;15.404;2023-06-01T04:41:41;97532.13;;;20.28
80537;BMP280;69867;47.074;15.404;2023-06-01T04:44:06;97529.78;;;21.58
80537;BMP280;69867;47.074;15.404;2023-06-01T04:46:32;97518.28;;;22.71
80537;BMP280;69867;47.074;15.404;2023-06-01T04:48:58;97520.69;;;23.45
80537;BMP280;69867;47.074;15.404;2023-06-01T04:51:24;97519.19;;;23.76
80537;BMP280;69867;47.074;15.404;2023-06-01T04:53:51;97514.88;;;24.42
80537;BMP280;69867;47.074;15.404;2023-06-01T04:56:17;97512.13;;;25.19
80537;BMP280;69867;47.074;15.404;2023-06-01T04:58:44;97505.47;;;25.66
80537;BMP280;69867;47.074;15.404;2023-06-01T05:01:09;97502.91;;;26.37
80537;BMP280;69867;47.074;15.404;2023-06-01T05:03:35;97496.09;;;26.92
80537;BMP280;69867;47.074;15.404;2023-06-01T05:06:00;97492.75;;;27.29
80537;BMP280;69867;47.074;15.404;2023-06-01T05:08:25;97499.75;;;26.82
80537;BMP280;69867;47.074;15.404;2023-06-01T05:10:50;97494.81;;;26.67
80537;BMP280;69867;47.074;15.404;2023-06-01T05:13:16;97496.13;;;27.50
80537;BMP280;69867;47.074;15.404;2023-06-01T05:15:41;97491.19;;;27.65
80537;BMP280;69867;47.074;15.404;2023-06-01T05:18:06;97490.81;;;28.34
80537;BMP280;69867;47.074;15.404;2023-06-01T05:20:32;97489.44;;;28.20
80537;BMP280;69867;47.074;15.404;2023-06-01T05:22:57;97494.25;;;28.17
80537;BMP280;69867;47.074;15.404;2023-06-01T05:25:22;97496.16;;;28.61
80537;BMP280;69867;47.074;15.404;2023-06-01T05:27:48;97500.06;;;28.94
80537;BMP280;69867;47.074;15.404;2023-06-01T05:30:13;97488.53;;;29.55
80537;BMP280;69867;47.074;15.404;2023-06-01T05:32:39;97493.75;;;29.57
80537;BMP280;69867;47.074;15.404;2023-06-01T05:35:05;97486.75;;;29.64
80537;BMP280;69867;47.074;15.404;2023-06-01T05:37:30;97496.44;;;29.21
80537;BMP280;69867;47.074;15.404;2023-06-01T05:39:56;97493.00;;;29.29
80537;BMP280;69867;47.074;15.404;2023-06-01T05:42:21;97493.31;;;29.44
80537;BMP280;69867;47.074;15.404;2023-06-01T05:44:46;97489.13;;;29.93
80537;BMP280;69867;47.074;15.404;2023-06-01T05:47:12;97490.69;;;29.78
80537;BMP280;69867;47.074;15.404;2023-06-01T05:49:37;97484.34;;;29.79
80537;BMP280;69867;47.074;15.404;2023-06-01T05:52:03;97496.56;;;29.38
80537;BMP280;69867;47.074;15.404;2023-06-01T05:54:29;97491.94;;;30.09
80537;BMP280;69867;47.074;15.404;2023-06-01T05:56:54;97488.53;;;30.41
80537;BMP280;69867;47.074;15.404;2023-06-01T05:59:19;97484.78;;;29.92
80537;BMP280;69867;47.074;15.404;2023-06-01T06:01:45;97487.66;;;29.99
80537;BMP280;69867;47.074;15.404;2023-06-01T06:04:10;97484.22;;;29.88
80537;BMP280;69867;47.074;15.404;2023-06-01T06:06:35;97488.03;;;30.38
80537;BMP280;69867;47.074;15.404;2023-06-01T06:09:01;97484.22;;;30.56
80537;BMP280;69867;47.074;15.404;2023-06-01T06:11:27;97482.16;;;31.01
80537;BMP280;69867;47.074;15.404;2023-06-01T06:13:52;97483.94;;;30.17
80537;BMP280;69867;47.074;15.404;2023-06-01T06:16:17;97481.31;;;30.84
80537;BMP280;69867;47.074;15.404;2023-06-01T06:18:43;97484.81;;;30.76
80537;BMP280;69867;47.074;15.404;2023-06-01T06:21:08;97504.63;;;29.20
80537;BMP280;69867;47.074;15.404;2023-06-01T06:23:33;97489.44;;;29.90
80537;BMP280;69867;47.074;15.404;2023-06-01T06:25:59;97488.78;;;30.14
80537;BMP280;69867;47.074;15.404;2023-06-01T06:28:24;97483.38;;;29.88
80537;BMP280;69867;47.074;15.404;2023-06-01T06:30:49;97494.84;;;29.11
80537;BMP280;69867;47.074;15.404;2023-06-01T06:33:15;97498.59;;;28.27
80537;BMP280;69867;47.074;15.404;2023-06-01T06:35:40;97500.34;;;27.62
80537;BMP280;69867;47.074;15.404;2023-06-01T06:38:05;97500.56;;;27.88
80537;BMP280;69867;47.074;15.404;2023-06-01T06:40:31;97497.66;;;28.09
80537;BMP280;69867;47.074;15.404;2023-06-01T06:42:56;97502.75;;;28.02
80537;BMP280;69867;47.074;15.404;2023-06-01T06:45:21;97494.25;;;28.17
80537;BMP280;69867;47.074;15.404;2023-06-01T06:47:47;97501.19;;;27.53
80537;BMP280;69867;47.074;15.404;2023-06-01T06:50:12;97503.34;;;26.52
80537;BMP280;69867;47.074;15.404;2023-06-01T06:52:38;97506.13;;;26.10
80537;BMP280;69867;47.074;15.404;2023-06-01T06:55:03;97508.19;;;25.76
80537;BMP280;69867;47.074;15.404;2023-06-01T06:57:29;97518.25;;;24.22
80537;BMP280;69867;47.074;15.404;2023-06-01T06:59:54;97506.53;;;24.13
80537;BMP280;69867;47.074;15.404;2023-06-01T07:02:19;97506.16;;;24.40
80537;BMP280;69867;47.074;15.404;2023-06-01T07:04:45;97505.31;;;25.05
80537;BMP280;69867;47.074;15.404;2023-06-01T07:07:10;97508.63;;;25.39
80537;BMP280;69867;47.074;15.404;2023-06-01T07:09:35;97508.69;;;25.28
80537;BMP280;69867;47.074;15.404;2023-06-01T07:12:01;97507.53;;;25.21
80537;BMP280;69867;47.074;15.404;2023-06-01T07:14:26;97517.31;;;25.20
80537;BMP280;69867;47.074;15.404;2023-06-01T07:16:51;97507.47;;;25.32
80537;BMP280;69867;47.074;15.404;2023-06-01T07:19:17;97505.59;;;25.44
80537;BMP280;69867;47.074;15.404;2023-06-01T07:21:42;97504.09;;;25.72
80537;BMP280;69867;47.074;15.404;2023-06-01T07:24:07;97512.66;;;25.34
80537;BMP280;69867;47.074;15.404;2023-06-01T07:26:33;97507.91;;;25.16
80537;BMP280;69867;47.074;15.404;2023-06-01T07:28:58;97510.06;;;25.43
80537;BMP280;69867;47.074;15.404;2023-06-01T07:31:24;97513.81;;;25.20
80537;BMP280;69867;47.074;15.404;2023-06-01T07:33:49;97511.22;;;25.30
80537;BMP280;69867;47.074;15.404;2023-06-01T07:36:17;97501.09;;;25.86
80537;BMP280;69867;47.074;15.404;2023-06-01T07:38:43;97498.47;;;26.26
80537;BMP280;69867;47.074;15.404;2023-06-01T07:41:09;97501.56;;;26.71
80537;BMP280;69867;47.074;15.404;2023-06-01T07:43:36;97503.44;;;27.09
80537;BMP280;69867;47.074;15.404;2023-06-01T07:46:01;97503.00;;;27.24
80537;BMP280;69867;47.074;15.404;2023-06-01T07:48:26;97496.72;;;27.34
80537;BMP280;69867;47.074;15.404;2023-06-01T07:50:52;97489.91;;;27.59
80537;BMP280;69867;47.074;15.404;2023-06-01T07:53:17;97488.97;;;27.22
80537;BMP280;69867;47.074;15.404;2023-06-01T07:55:43;97487.41;;;27.58
80537;BMP280;69867;47.074;15.404;2023-06-01T07:58:08;97488.19;;;27.87
80537;BMP280;69867;47.074;15.404;2023-06-01T08:00:33;97487.34;;;27.87
80537;BMP280;69867;47.074;15.404;2023-06-01T08:02:59;97478.19;;;28.26
80537;BMP280;69867;47.074;15.404;2023-06-01T08:05:24;97480.56;;;28.57
80537;BMP280;69867;47.074;15.404;2023-06-01T08:07:49;97478.38;;;28.70
80537;BMP280;69867;47.074;15.404;2023-06-01T08:10:15;97482.66;;;28.35
80537;BMP280;69867;47.074;15.404;2023-06-01T08:12:40;97483.38;;;28.55
80537;BMP280;69867;47.074;15.404;2023-06-01T08:15:06;97483.53;;;28.54
80537;BMP280;69867;47.074;15.404;2023-06-01T08:17:31;97486.59;;;28.59
80537;BMP280;69867;47.074;15.404;2023-06-01T08:19:57;97480.59;;;28.75
80537;BMP280;69867;47.074;15.404;2023-06-01T08:22:23;97485.59;;;29.05
80537;BMP280;69867;47.074;15.404;2023-06-01T08:24:49;97481.84;;;29.16
80537;BMP280;69867;47.074;15.404;2023-06-01T08:27:21;97481.00;;;29.15
80537;BMP280;69867;47.074;15.404;2023-06-01T08:29:47;97481.00;;;29.15
80537;BMP280;69867;47.074;15.404;2023-06-01T08:32:13;97472.19;;;28.70
80537;BMP280;69867;47.074;15.404;2023-06-01T08:34:39;97475.28;;;28.92
80537;BMP280;69867;47.074;15.404;2023-06-01T08:37:04;97465.41;;;28.75
80537;BMP280;69867;47.074;15.404;2023-06-01T08:39:30;97473.34;;;28.40
80537;BMP280;69867;47.074;15.404;2023-06-01T08:42:06;97472.69;;;28.55
80537;BMP280;69867;47.074;15.404;2023-06-01T08:44:36;97467.38;;;28.73
80537;BMP280;69867;47.074;15.404;2023-06-01T08:47:02;97464.41;;;28.76
80537;BMP280;69867;47.074;15.404;2023-06-01T08:49:30;97466.41;;;29.10
80537;BMP280;69867;47.074;15.404;2023-06-01T08:51:57;97465.88;;;29.06
80537;BMP280;69867;47.074;15.404;2023-06-01T08:54:24;97469.16;;;29.18
80537;BMP280;69867;47.074;15.404;2023-06-01T08:56:50;97466.16;;;29.21
80537;BMP280;69867;47.074;15.404;2023-06-01T08:59:15;97468.16;;;29.19
80537;BMP280;69867;47.074;15.404;2023-06-01T09:01:41;97464.63;;;28.83
80537;BMP280;69867;47.074;15.404;2023-06-01T09:04:07;97470.38;;;29.23
80537;BMP280;69867;47.074;15.404;2023-06-01T09:06:32;97464.13;;;29.15
80537;BMP280;69867;47.074;15.404;2023-06-01T09:08:57;97466.88;;;28.87
80537;BMP280;69867;47.074;15.404;2023-06-01T09:11:25;97466.50;;;28.55
80537;BMP280;69867;47.074;15.404;2023-06-01T09:13:51;97461.84;;;28.84
80537;BMP280;69867;47.074;15.404;2023-06-01T09:16:16;97463.50;;;28.40
80537;BMP280;69867;47.074;15.404;2023-06-01T09:18:54;97457.19;;;28.86
80537;BMP280;69867;47.074;15.404;2023-06-01T09:21:19;97456.00;;;29.07
80537;BMP280;69867;47.074;15.404;2023-06-01T09:23:45;97454.28;;;28.97
80537;BMP280;69867;47.074;15.404;2023-06-01T09:26:12;97458.09;;;28.95
80537;BMP280;69867;47.074;15.404;2023-06-01T09:28:58;97445.91;;;28.65
80537;BMP280;69867;47.074;15.404;2023-06-01T09:31:45;97450.38;;;28.47
80537;BMP280;69867;47.074;15.404;2023-06-01T09:34:21;97450.34;;;28.19
80537;BMP280;69867;47.074;15.404;2023-06-01T09:36:47;97458.59;;;27.71
80537;BMP280;69867;47.074;15.404;2023-06-01T09:39:15;97456.34;;;27.66
80537;BMP280;69867;47.074;15.404;2023-06-01T09:41:59;97452.41;;;27.70
80537;BMP280;69867;47.074;15.404;2023-06-01T09:44:36;97454.25;;;27.51
80537;BMP280;69867;47.074;15.404;2023-06-01T09:47:03;97445.56;;;27.49
80537;BMP280;69867;47.074;15.404;2023-06-01T09:49:36;97447.78;;;27.53
80537;BMP280;69867;47.074;15.404;2023-06-01T09:54:32;97442.34;;;27.45
80537;BMP280;69867;47.074;15.404;2023-06-01T09:56:59;97445.28;;;27.23
80537;BMP280;69867;47.074;15.404;2023-06-01T09:59:25;97440.38;;;27.47
80537;BMP280;69867;47.074;15.404;2023-06-01T10:01:53;97442.50;;;27.34
80537;BMP280;69867;47.074;15.404;2023-06-01T10:04:21;97439.94;;;27.61
80537;BMP280;69867;47.074;15.404;2023-06-01T10:06:47;97435.28;;;27.63
80537;BMP280;69867;47.074;15.404;2023-06-01T10:09:13;97438.06;;;27.71
80537;BMP280;69867;47.074;15.404;2023-06-01T10:11:39;97438.50;;;27.57
80537;BMP280;69867;47.074;15.404;2023-06-01T10:14:05;97432.59;;;27.73
80537;BMP280;69867;47.074;15.404;2023-06-01T10:16:31;97425.53;;;27.82
80537;BMP280;69867;47.074;15.404;2023-06-01T10:18:57;97424.53;;;28.10
80537;BMP280;69867;47.074;15.404;2023-06-01T10:21:23;97415.94;;;27.89
80537;BMP280;69867;47.074;15.404;2023-06-01T10:23:49;97415.94;;;27.89
80537;BMP280;69867;47.074;15.404;2023-06-01T10:26:16;97411.97;;;27.93
80537;BMP280;69867;47.074;15.404;2023-06-01T10:28:48;97415.03;;;27.98
80537;BMP280;69867;47.074;15.404;2023-06-01T10:34:02;97407.47;;;27.66
80537;BMP280;69867;47.074;15.404;2023-06-01T10:39:36;97406.69;;;27.27
80537;BMP280;69867;47.074;15.404;2023-06-01T10:52:33;97400.13;;;26.63
80537;BMP280;69867;47.074;15.404;2023-06-01T10:57:37;97387.47;;;26.94
80537;BMP280;69867;47.074;15.404;2023-06-01T11:00:23;97389.59;;;27.00
80537;BMP280;69867;47.074;15.404;2023-06-01T11:02:54;97379.19;;;27.17
80537;BMP280;69867;47.074;15.404;2023-06-01T11:07:59;97380.56;;;27.21
80537;BMP280;69867;47.074;15.404;2023-06-01T11:13:28;97370.88;;;27.20
80537;BMP280;69867;47.074;15.404;2023-06-01T11:21:05;97370.78;;;26.73
80537;BMP280;69867;47.074;15.404;2023-06-01T11:23:32;97378.09;;;26.81
80537;BMP280;69867;47.074;15.404;2023-06-01T11:26:00;97366.31;;;26.73
80537;BMP280;69867;47.074;15.404;2023-06-01T11:28:27;97365.91;;;26.59
80537;BMP280;69867;47.074;15.404;2023-06-01T11:30:54;97362.09;;;26.52
80537;BMP280;69867;47.074;15.404;2023-06-01T11:33:20;97358.44;;;26.72
80537;BMP280;69867;47.074;15.404;2023-06-01T11:35:45;97358.44;;;26.72
80537;BMP280;69867;47.074;15.404;2023-06-01T11:38:11;97355.28;;;27.25
80537;BMP280;69867;47.074;15.404;2023-06-01T11:40:36;97348.53;;;27.40
80537;BMP280;69867;47.074;15.404;2023-06-01T11:43:02;97354.59;;;27.32
80537;BMP280;69867;47.074;15.404;2023-06-01T11:45:27;97345.03;;;27.30
80537;BMP280;69867;47.074;15.404;2023-06-01T11:47:52;97337.16;;;27.28
80537;BMP280;69867;47.074;15.404;2023-06-01T11:50:23;97340.25;;;27.33
80537;BMP280;69867;47.074;15.404;2023-06-01T11:52:48;97335.75;;;27.34
80537;BMP280;69867;47.074;15.404;2023-06-01T11:55:13;97328.31;;;27.28
80537;BMP280;69867;47.074;15.404;2023-06-01T11:57:42;97324.25;;;27.24
80537;BMP280;69867;47.074;15.404;2023-06-01T12:00:11;97329.84;;;27.30
80537;BMP280;69867;47.074;15.404;2023-06-01T12:02:36;97324.25;;;27.24
80537;BMP280;69867;47.074;15.404;2023-06-01T12:05:03;97318.97;;;27.51
80537;BMP280;69867;47.074;15.404;2023-06-01T12:07:29;97317.88;;;27.44
80537;BMP280;69867;47.074;15.404;2023-06-01T12:09:55;97313.72;;;27.22
80537;BMP280;69867;47.074;15.404;2023-06-01T12:12:25;97316.16;;;27.16
80537;BMP280;69867;47.074;15.404;2023-06-01T12:14:51;97303.28;;;27.01
80537;BMP280;69867;47.074;15.404;2023-06-01T12:17:17;97301.31;;;27.03
80537;BMP280;69867;47.074;15.404;2023-06-01T12:19:46;97294.56;;;26.99
80537;BMP280;69867;47.074;15.404;2023-06-01T12:22:12;97291.78;;;27.01
80537;BMP280;69867;47.074;15.404;2023-06-01T12:24:37;97292.16;;;26.96
80537;BMP280;69867;47.074;15.404;2023-06-01T12:27:12;97290.38;;;26.87
80537;BMP280;69867;47.074;15.404;2023-06-01T12:29:39;97289.41;;;26.78
80537;BMP280;69867;47.074;15.404;2023-06-01T12:32:05;97288.41;;;26.89
80537;BMP280;69867;47.074;15.404;2023-06-01T12:34:30;97283.63;;;26.93
80537;BMP280;69867;47.074;15.404;2023-06-01T12:36:56;97282.63;;;27.03
80537;BMP280;69867;47.074;15.404;2023-06-01T12:39:34;97278.25;;;27.12
80537;BMP280;69867;47.074;15.404;2023-06-01T12:41:59;97271.13;;;27.40
80537;BMP280;69867;47.074;15.404;2023-06-01T12:44:25;97270.84;;;27.43
80537;BMP280;69867;47.074;15.404;2023-06-01T12:46:56;97270.25;;;27.77
80537;BMP280;69867;47.074;15.404;2023-06-01T12:49:21;97263.25;;;27.93
80537;BMP280;69867;47.074;15.404;2023-06-01T12:51:47;97262.94;;;27.96
80537;BMP280;69867;47.074;15.404;2023-06-01T12:54:12;97257.22;;;28.09
80537;BMP280;69867;47.074;15.404;2023-06-01T12:56:37;97250.41;;;27.79
80537;BMP280;69867;47.074;15.404;2023-06-01T12:59:03;97248.59;;;27.52
80537;BMP280;69867;47.074;15.404;2023-06-01T13:01:28;97250.56;;;27.50
80537;BMP280;69867;47.074;15.404;2023-06-01T13:03:54;97245.03;;;27.34
80537;BMP280;69867;47.074;15.404;2023-06-01T13:06:19;97245.81;;;27.17
80537;BMP280;69867;47.074;15.404;2023-06-01T13:08:44;97242.94;;;26.91
80537;BMP280;69867;47.074;15.404;2023-06-01T13:11:10;97240.84;;;26.85
80537;BMP280;69867;47.074;15.404;2023-06-01T13:13:35;97236.78;;;26.81
80537;BMP280;69867;47.074;15.404;2023-06-01T13:16:01;97227.53;;;26.75
80537;BMP280;69867;47.074;15.404;2023-06-01T13:18:27;97220.25;;;26.77
80537;BMP280;69867;47.074;15.404;2023-06-01T13:20:52;97223.50;;;26.71
80537;BMP280;69867;47.074;15.404;2023-06-01T13:23:17;97217.19;;;26.62
80537;BMP280;69867;47.074;15.404;2023-06-01T13:25:43;97206.44;;;26.54
80537;BMP280;69867;47.074;15.404;2023-06-01T13:28:08;97209.53;;;26.50
80537;BMP280;69867;47.074;15.404;2023-06-01T13:30:34;97207.41;;;26.53
80537;BMP280;69867;47.074;15.404;2023-06-01T13:33:00;97193.25;;;26.53
80537;BMP280;69867;47.074;15.404;2023-06-01T13:35:25;97201.81;;;26.46
80537;BMP280;69867;47.074;15.404;2023-06-01T13:37:51;97200.28;;;26.44
80537;BMP280;69867;47.074;15.404;2023-06-01T13:40:16;97195.78;;;26.25
80537;BMP280;69867;47.074;15.404;2023-06-01T13:42:41;97180.81;;;26.05
80537;BMP280;69867;47.074;15.404;2023-06-01T13:45:07;97176.63;;;26.12
80537;BMP280;69867;47.074;15.404;2023-06-01T13:47:35;97180.25;;;26.21
80537;BMP280;69867;47.074;15.404;2023-06-01T13:50:00;97166.53;;;26.15
80537;BMP280;69867;47.074;15.404;2023-06-01T13:52:25;97168.59;;;26.22
80537;BMP280;69867;47.074;15.404;2023-06-01T13:54:51;97162.31;;;26.32
80537;BMP280;69867;47.074;15.404;2023-06-01T13:57:16;97165.22;;;26.39
80537;BMP280;69867;47.074;15.404;2023-06-01T13:59:41;97163.41;;;26.39
80537;BMP280;69867;47.074;15.404;2023-06-01T14:02:07;97163.41;;;26.39
80537;BMP280;69867;47.074;15.404;2023-06-01T14:04:32;97158.03;;;26.59
80537;BMP280;69867;47.074;15.404;2023-06-01T14:06:58;97159.63;;;26.79
80537;BMP280;69867;47.074;15.404;2023-06-01T14:09:23;97158.56;;;26.99
80537;BMP280;69867;47.074;15.404;2023-06-01T14:11:49;97156.09;;;27.16
80537;BMP280;69867;47.074;15.404;2023-06-01T14:14:14;97155.31;;;27.05
80537;BMP280;69867;47.074;15.404;2023-06-01T14:16:40;97154.47;;;27.05
80537;BMP280;69867;47.074;15.404;2023-06-01T14:19:05;97148.69;;;27.09
80537;BMP280;69867;47.074;15.404;2023-06-01T14:21:31;97141.97;;;27.05
80537;BMP280;69867;47.074;15.404;2023-06-01T14:23:56;97150.56;;;26.99
80537;BMP280;69867;47.074;15.404;2023-06-01T14:26:22;97147.09;;;27.17
80537;BMP280;69867;47.074;15.404;2023-06-01T14:28:47;97137.56;;;27.14
80537;BMP280;69867;47.074;15.404;2023-06-01T14:31:12;97139.66;;;27.20